Time;durP1;ratioP1;P1;durP2;ratioP2;P2;SDS_P1;SDS_P2;PMS_P1;PMS_P2;Temp;Humidity;BMP_temperature;BMP_pressure;BME280_temperature;BME280_humidity;BME280_pressure;Samples;Min_cycle;Max_cycle;Signal;HPM_P1;HPM_P2
2022/12/22 03:27:22;;;;;;;58.9;45.5;;;;;;;2.6;89.9;98520;;;;
2022/12/22 03:37:22;;;;;;;51;38.1;;;;;;;2.4;90.8;98520;;;;
2022/12/22 03:48:22;;;;;;;51;38.1;;;;;;;2.6;91.2;98520;;;;
2022/12/22 03:58:22;;;;;;;48;34.4;;;;;;;2.5;91.3;98520;;;;
2022/12/22 04:09:23;;;;;;;48;34.4;;;;;;;2.6;91.5;98510;;;;
2022/12/22 04:19:23;;;;;;;48;34.4;;;;;;;2.6;91.5;98500;;;;
2022/12/22 04:29:22;;;;;;;40.7;32;;;;;;;2.7;91.4;98490;;;;
2022/12/22 04:40:22;;;;;;;40.7;32;;;;;;;2.7;91.3;98470;;;;
2022/12/22 04:51:22;;;;;;;40.7;32;;;;;;;2.5;91;98470;;;;
2022/12/22 05:02:22;;;;;;;42.4;31.5;;;;;;;2.6;91;98450;;;;
2022/12/22 05:12:53;;;;;;;42.4;31.5;;;;;;;2.8;91.1;98450;;;;
2022/12/22 05:23:22;;;;;;;42.4;31.5;;;;;;;2.8;90.8;98440;;;;
2022/12/22 05:34:22;;;;;;;39;27.8;;;;;;;2.8;90.6;98450;;;;
2022/12/22 05:44:22;;;;;;;39;27.8;;;;;;;2.6;90.4;98430;;;;
2022/12/22 05:54:22;;;;;;;39;27.8;;;;;;;2.5;90.3;98430;;;;
2022/12/22 06:05:22;;;;;;;41;27.7;;;;;;;2.2;89.8;98430;;;;
2022/12/22 06:15:22;;;;;;;41;27.7;;;;;;;2.3;90.1;98440;;;;
2022/12/22 06:26:22;;;;;;;41;27.7;;;;;;;2.2;90.5;98450;;;;
2022/12/22 06:36:22;;;;;;;39.1;27.9;;;;;;;2.3;90.7;98440;;;;
2022/12/22 06:47:22;;;;;;;39.1;27.9;;;;;;;2.5;91.1;98450;;;;
2022/12/22 06:58:22;;;;;;;51.6;33.9;;;;;;;2.4;91;98440;;;;
2022/12/22 07:09:22;;;;;;;51.6;33.9;;;;;;;2.4;91.3;98440;;;;
2022/12/22 07:19:22;;;;;;;51.6;33.9;;;;;;;2.7;91.4;98430;;;;
2022/12/22 07:30:22;;;;;;;42.5;32.7;;;;;;;2.9;91.4;98420;;;;
2022/12/22 07:40:22;;;;;;;42.5;32.7;;;;;;;2.5;91.3;98380;;;;
2022/12/22 07:51:22;;;;;;;42.5;32.7;;;;;;;2.8;91.5;98390;;;;
2022/12/22 08:01:22;;;;;;;41.3;28.8;;;;;;;2.9;91.3;98390;;;;
2022/12/22 08:11:22;;;;;;;41.3;28.8;;;;;;;3.1;91.3;98380;;;;
2022/12/22 08:21:22;;;;;;;41.3;28.8;;;;;;;3.3;91;98380;;;;
2022/12/22 08:32:22;;;;;;;55.7;44.4;;;;;;;4;90.6;98360;;;;
2022/12/22 08:43:23;;;;;;;55.7;44.4;;;;;;;4.8;89.9;98360;;;;
2022/12/22 08:54:22;;;;;;;55.7;44.4;;;;;;;5.5;87.9;98340;;;;
2022/12/22 09:05:22;;;;;;;69.8;58.6;;;;;;;5.5;85.9;98330;;;;
2022/12/22 09:15:22;;;;;;;69.8;58.6;;;;;;;5.8;84.8;98310;;;;
2022/12/22 09:25:22;;;;;;;69.8;58.6;;;;;;;6.1;85;98310;;;;
2022/12/22 09:36:22;;;;;;;59.1;49.7;;;;;;;6.3;83;98290;;;;
2022/12/22 09:47:22;;;;;;;59.1;49.7;;;;;;;7;82.8;98250;;;;
2022/12/22 09:58:22;;;;;;;50;44.1;;;;;;;7.4;81.3;98250;;;;
2022/12/22 10:09:22;;;;;;;50;44.1;;;;;;;7.8;80.6;98240;;;;
2022/12/22 10:19:22;;;;;;;50;44.1;;;;;;;7.9;80.2;98210;;;;
2022/12/22 10:29:22;;;;;;;57.5;50.3;;;;;;;7.6;80;98200;;;;
2022/12/22 10:40:22;;;;;;;57.5;50.3;;;;;;;7.3;80.2;98190;;;;
2022/12/22 10:50:22;;;;;;;57.5;50.3;;;;;;;7.3;80.9;98190;;;;
2022/12/22 11:00:22;;;;;;;64.6;54.2;;;;;;;7.4;81;98160;;;;
2022/12/22 11:11:22;;;;;;;64.6;54.2;;;;;;;7.9;81.6;98140;;;;
2022/12/22 11:22:22;;;;;;;64.6;54.2;;;;;;;8.2;79.9;98140;;;;
2022/12/22 11:32:22;;;;;;;66.5;56.2;;;;;;;8.6;80.2;98140;;;;
2022/12/22 11:42:22;;;;;;;66.5;56.2;;;;;;;8.9;79.5;98130;;;;
2022/12/22 11:52:22;;;;;;;66.5;56.2;;;;;;;9.3;79;98110;;;;
2022/12/22 12:03:22;;;;;;;65.9;56.1;;;;;;;9.7;78;98110;;;;
2022/12/22 12:13:22;;;;;;;65.9;56.1;;;;;;;9.8;77.2;98110;;;;
2022/12/22 12:24:22;;;;;;;65.9;56.1;;;;;;;10.4;76.3;98090;;;;
2022/12/22 12:34:22;;;;;;;60.7;53.6;;;;;;;10.2;75.6;98070;;;;
2022/12/22 12:44:22;;;;;;;60.7;53.6;;;;;;;9.8;75.5;98060;;;;
2022/12/22 12:55:22;;;;;;;60.7;53.6;;;;;;;9.7;76.5;98050;;;;
2022/12/22 13:05:22;;;;;;;13.6;10.9;;;;;;;9.9;77.2;98050;;;;
2022/12/22 13:15:22;;;;;;;13.6;10.9;;;;;;;9.5;76;98040;;;;
2022/12/22 13:26:22;;;;;;;13.6;10.9;;;;;;;9;78;98030;;;;
2022/12/22 13:37:22;;;;;;;15.5;12.5;;;;;;;8.7;78.6;98030;;;;
2022/12/22 13:47:22;;;;;;;15.5;12.5;;;;;;;8.6;79;98040;;;;
2022/12/22 13:57:22;;;;;;;9.7;7.4;;;;;;;8.3;79.2;98030;;;;
2022/12/22 14:07:22;;;;;;;9.7;7.4;;;;;;;7.8;79.7;98020;;;;
2022/12/22 14:18:22;;;;;;;9.7;7.4;;;;;;;7.3;80.2;98020;;;;
2022/12/22 14:29:22;;;;;;;13.2;9.1;;;;;;;6.9;82.5;98020;;;;
2022/12/22 14:40:22;;;;;;;13.2;9.1;;;;;;;6.5;83.1;98020;;;;
2022/12/22 14:50:22;;;;;;;13.2;9.1;;;;;;;6.6;83.8;98020;;;;
2022/12/22 15:01:23;;;;;;;10;7.5;;;;;;;6.9;83.3;98020;;;;
2022/12/22 15:11:22;;;;;;;10;7.5;;;;;;;7;82.7;98010;;;;
2022/12/22 15:21:22;;;;;;;10;7.5;;;;;;;7.1;82.3;98000;;;;
2022/12/22 15:31:22;;;;;;;8.2;6.2;;;;;;;7.2;81.7;98000;;;;
2022/12/22 15:41:22;;;;;;;8.2;6.2;;;;;;;7.2;81.8;98000;;;;
2022/12/22 15:52:22;;;;;;;8.2;6.2;;;;;;;7.3;81.4;97970;;;;
2022/12/22 16:02:22;;;;;;;9.3;6.1;;;;;;;7.4;80.9;97970;;;;
2022/12/22 16:13:22;;;;;;;9.3;6.1;;;;;;;7.5;81;97960;;;;
2022/12/22 16:23:22;;;;;;;9.3;6.1;;;;;;;7.6;80.9;97970;;;;
2022/12/22 16:33:22;;;;;;;9.3;5.1;;;;;;;7.5;80.9;97970;;;;
2022/12/22 16:43:22;;;;;;;9.3;5.1;;;;;;;7.6;80.9;97980;;;;
2022/12/22 16:54:22;;;;;;;9.3;5.1;;;;;;;7.7;80.6;97980;;;;
2022/12/22 17:05:22;;;;;;;8;5;;;;;;;7.6;80.5;97990;;;;
2022/12/22 17:16:22;;;;;;;8;5;;;;;;;7.5;81;98000;;;;
2022/12/22 17:26:22;;;;;;;8;5;;;;;;;7.2;81.4;97990;;;;
2022/12/22 17:37:22;;;;;;;8.5;5.9;;;;;;;7;81.9;97990;;;;
2022/12/22 17:48:22;;;;;;;8.5;5.9;;;;;;;6.8;82;97990;;;;
2022/12/22 17:58:22;;;;;;;11.5;7.5;;;;;;;6.7;81.8;97980;;;;
2022/12/22 18:09:22;;;;;;;11.5;7.5;;;;;;;6.7;81.3;97970;;;;
2022/12/22 18:20:22;;;;;;;11.5;7.5;;;;;;;6.7;80.9;97960;;;;
2022/12/22 18:30:23;;;;;;;10.4;7.9;;;;;;;6.9;80.2;97950;;;;
2022/12/22 18:41:22;;;;;;;10.4;7.9;;;;;;;6.9;80.3;97930;;;;
2022/12/22 18:51:22;;;;;;;10.4;7.9;;;;;;;7;80.2;97940;;;;
2022/12/22 19:02:23;;;;;;;11.6;8.3;;;;;;;6.9;80.6;97930;;;;
2022/12/22 19:12:22;;;;;;;11.6;8.3;;;;;;;6.9;80.5;97920;;;;
2022/12/22 19:23:22;;;;;;;11.6;8.3;;;;;;;7.1;79.5;97930;;;;
2022/12/22 19:33:22;;;;;;;12.8;8.1;;;;;;;7.2;79.2;97930;;;;
2022/12/22 19:43:22;;;;;;;12.8;8.1;;;;;;;7.3;78.4;97930;;;;
2022/12/22 19:53:22;;;;;;;12.8;8.1;;;;;;;7.3;78.3;97930;;;;
2022/12/22 20:04:22;;;;;;;10.8;6.1;;;;;;;7.2;78.5;97930;;;;
2022/12/22 20:14:22;;;;;;;10.8;6.1;;;;;;;7.1;78.8;97930;;;;
2022/12/22 20:25:22;;;;;;;10.8;6.1;;;;;;;7.1;79.1;97930;;;;
2022/12/22 20:35:22;;;;;;;12.4;8.8;;;;;;;7.1;78.8;97920;;;;
2022/12/22 20:45:22;;;;;;;12.4;8.8;;;;;;;7.1;78.7;97910;;;;
2022/12/22 20:55:22;;;;;;;12.4;8.8;;;;;;;7.1;78.8;97930;;;;
2022/12/22 21:05:22;;;;;;;12.5;8.6;;;;;;;6.9;79.2;97920;;;;
2022/12/22 21:15:22;;;;;;;12.5;8.6;;;;;;;6.9;79.5;97920;;;;
2022/12/22 21:25:22;;;;;;;12.5;8.6;;;;;;;6.7;79.7;97910;;;;
2022/12/22 21:36:22;;;;;;;11.9;7.7;;;;;;;6.7;80.2;97910;;;;
2022/12/22 21:46:22;;;;;;;11.9;7.7;;;;;;;6.6;80.3;97910;;;;
2022/12/22 21:56:22;;;;;;;10.6;6.6;;;;;;;6.5;80.4;97900;;;;
2022/12/22 22:07:22;;;;;;;10.6;6.6;;;;;;;6.4;81;97920;;;;
2022/12/22 22:17:22;;;;;;;10.6;6.6;;;;;;;6.2;81.7;97920;;;;
2022/12/22 22:27:22;;;;;;;11.5;6.3;;;;;;;6.3;81.8;97920;;;;
2022/12/22 22:38:22;;;;;;;11.5;6.3;;;;;;;6.5;81.4;97930;;;;
2022/12/22 22:48:22;;;;;;;11.5;6.3;;;;;;;6.6;81.3;97920;;;;
2022/12/22 22:58:22;;;;;;;10.3;6.9;;;;;;;6.6;81.1;97910;;;;
2022/12/22 23:09:22;;;;;;;10.3;6.9;;;;;;;6.6;81;97910;;;;
2022/12/22 23:20:22;;;;;;;10.3;6.9;;;;;;;6.7;80.7;97910;;;;
2022/12/22 23:31:22;;;;;;;10.7;6.1;;;;;;;6.6;80.6;97910;;;;
2022/12/22 23:42:22;;;;;;;10.7;6.1;;;;;;;6.6;80.9;97930;;;;
2022/12/22 23:52:22;;;;;;;10.7;6.1;;;;;;;6.5;81.2;97930;;;;
